EXS9GH LEMH-EGCC
Flight info
| Callsign | EXS9GH |
|---|---|
| Flight time | N/A |
| Altitude | 36000 |
| Route | MEROS N853 LUMAS DCT SOFFY DCT MRM DCT MTL DCT ETREK DCT MADOT DCT MOPEM DCT CACHI DCT AVLON DCT OKRIX DCT BRY DCT CLM DCT KOPOR DCT VESAN DCT RATUK DCT SOVAT L613 SANDY UN57 WELIN T420 ELVOS |
| Aircraft | A21N/M-SDE2E3FGHIRWXY/LB1 |
Departure
| Time | 2026-05-05 19:38 |
|---|---|
| Airport | Menorca Airport (LEMH) |
Arrival
| Time | N/A |
|---|---|
| Airport | Manchester Airport (EGCC) |
| Time | Latitude | Longitude | Altitude | Speed | Heading |
|---|---|---|---|---|---|
| 2026-05-05 19:29 | 39.86437 | 4.22238 | 310 ft | 0 kts | 287° |
| 2026-05-05 19:29 | 39.86423 | 4.22232 | 309 ft | 0 kts | 287° |
| 2026-05-05 19:30 | 39.86399 | 4.22237 | 307 ft | 0 kts | 60° |
| 2026-05-05 19:32 | 39.86400 | 4.22240 | 308 ft | 3 kts | 60° |
| 2026-05-05 19:32 | 39.86446 | 4.22300 | 309 ft | 16 kts | 27° |
| 2026-05-05 19:33 | 39.86569 | 4.22333 | 312 ft | 19 kts | 10° |
| 2026-05-05 19:33 | 39.86704 | 4.22367 | 312 ft | 20 kts | 8° |
| 2026-05-05 19:33 | 39.86849 | 4.22394 | 313 ft | 21 kts | 9° |
| 2026-05-05 19:33 | 39.86915 | 4.22364 | 314 ft | 11 kts | 288° |
| 2026-05-05 19:34 | 39.86941 | 4.22265 | 314 ft | 13 kts | 324° |
| 2026-05-05 19:34 | 39.87033 | 4.22263 | 315 ft | 15 kts | 9° |
| 2026-05-05 19:34 | 39.87137 | 4.22282 | 316 ft | 16 kts | 7° |
| 2026-05-05 19:35 | 39.87309 | 4.22319 | 318 ft | 0 kts | 10° |
| 2026-05-05 19:35 | 39.87310 | 4.22319 | 318 ft | 1 kts | 10° |
| 2026-05-05 19:36 | 39.87325 | 4.22323 | 318 ft | 4 kts | 10° |
| 2026-05-05 19:36 | 39.87390 | 4.22337 | 319 ft | 12 kts | 7° |
| 2026-05-05 19:36 | 39.87456 | 4.22284 | 319 ft | 14 kts | 267° |
| 2026-05-05 19:36 | 39.87408 | 4.22164 | 319 ft | 16 kts | 217° |
| 2026-05-05 19:37 | 39.87311 | 4.22087 | 319 ft | 17 kts | 194° |
| 2026-05-05 19:37 | 39.87053 | 4.22032 | 317 ft | 72 kts | 185° |
| 2026-05-05 19:37 | 39.86334 | 4.21883 | 305 ft | 135 kts | 189° |
| 2026-05-05 19:37 | 39.85345 | 4.21685 | 679 ft | 141 kts | 190° |
| 2026-05-05 19:38 | 39.84350 | 4.21478 | 1104 ft | 148 kts | 192° |
| 2026-05-05 19:38 | 39.83321 | 4.21248 | 1569 ft | 160 kts | 194° |
| 2026-05-05 19:38 | 39.82146 | 4.20994 | 1956 ft | 181 kts | 193° |
| 2026-05-05 19:38 | 39.80845 | 4.20716 | 2489 ft | 197 kts | 193° |
| 2026-05-05 19:39 | 39.79443 | 4.20414 | 3061 ft | 211 kts | 193° |
| 2026-05-05 19:39 | 39.77950 | 4.20095 | 3628 ft | 224 kts | 193° |
| 2026-05-05 19:39 | 39.76336 | 4.20142 | 4131 ft | 246 kts | 165° |
| 2026-05-05 19:39 | 39.74793 | 4.21267 | 4698 ft | 267 kts | 140° |
| 2026-05-05 19:40 | 39.73741 | 4.23322 | 5297 ft | 283 kts | 109° |
| 2026-05-05 19:40 | 39.73585 | 4.25880 | 6097 ft | 290 kts | 79° |
| 2026-05-05 19:40 | 39.74417 | 4.28262 | 6856 ft | 294 kts | 49° |
| 2026-05-05 19:40 | 39.76004 | 4.29909 | 7616 ft | 295 kts | 28° |
| 2026-05-05 19:41 | 39.77616 | 4.31604 | 8389 ft | 303 kts | 46° |
| 2026-05-05 19:41 | 39.79120 | 4.33547 | 9184 ft | 307 kts | 38° |
| 2026-05-05 19:41 | 39.80868 | 4.35154 | 9953 ft | 310 kts | 26° |
| 2026-05-05 19:41 | 39.82854 | 4.36307 | 10396 ft | 324 kts | 14° |
| 2026-05-05 19:42 | 39.85107 | 4.36925 | 10747 ft | 339 kts | 1° |
| 2026-05-05 19:42 | 39.87482 | 4.36927 | 11345 ft | 342 kts | 349° |
| 2026-05-05 19:42 | 39.89811 | 4.36317 | 12071 ft | 342 kts | 338° |
| 2026-05-05 19:42 | 39.91995 | 4.35121 | 12815 ft | 340 kts | 325° |
| 2026-05-05 19:43 | 39.93942 | 4.33393 | 13552 ft | 338 kts | 314° |
| 2026-05-05 19:43 | 39.95577 | 4.31213 | 14247 ft | 335 kts | 302° |
| 2026-05-05 19:43 | 39.96910 | 4.28722 | 14933 ft | 337 kts | 300° |
| 2026-05-05 19:43 | 39.98573 | 4.26499 | 15621 ft | 351 kts | 318° |
| 2026-05-05 19:44 | 40.00812 | 4.25080 | 16303 ft | 368 kts | 338° |
| 2026-05-05 19:44 | 40.03398 | 4.24698 | 16968 ft | 383 kts | 358° |
| 2026-05-05 19:44 | 40.06056 | 4.25274 | 17635 ft | 392 kts | 8° |
| 2026-05-05 19:44 | 40.08731 | 4.26082 | 18275 ft | 396 kts | 8° |
| 2026-05-05 19:45 | 40.11429 | 4.26863 | 18832 ft | 399 kts | 7° |
| 2026-05-05 19:45 | 40.14155 | 4.27595 | 19388 ft | 401 kts | 6° |
| 2026-05-05 19:45 | 40.16869 | 4.28292 | 19939 ft | 404 kts | 6° |
| 2026-05-05 19:45 | 40.19640 | 4.28993 | 20489 ft | 407 kts | 5° |
| 2026-05-05 19:46 | 40.22432 | 4.29697 | 21021 ft | 411 kts | 5° |
| 2026-05-05 19:46 | 40.25251 | 4.30411 | 21553 ft | 414 kts | 5° |
| 2026-05-05 19:46 | 40.28094 | 4.31131 | 22089 ft | 417 kts | 5° |
| 2026-05-05 19:46 | 40.30950 | 4.31853 | 22622 ft | 420 kts | 5° |
| 2026-05-05 19:47 | 40.33836 | 4.32576 | 23150 ft | 423 kts | 5° |
| 2026-05-05 19:47 | 40.36738 | 4.33304 | 23636 ft | 426 kts | 4° |
| 2026-05-05 19:47 | 40.39660 | 4.34041 | 24082 ft | 429 kts | 4° |
| 2026-05-05 19:47 | 40.42611 | 4.34788 | 24416 ft | 435 kts | 4° |
| 2026-05-05 19:48 | 40.45604 | 4.35552 | 24771 ft | 439 kts | 4° |
| 2026-05-05 19:48 | 40.47599 | 4.36064 | 25016 ft | 442 kts | 4° |
| 2026-05-05 19:48 | 40.51610 | 4.37165 | 25527 ft | 448 kts | 6° |
| 2026-05-05 19:48 | 40.54659 | 4.38112 | 25905 ft | 452 kts | 7° |
| 2026-05-05 19:49 | 40.57724 | 4.39077 | 26269 ft | 455 kts | 7° |
| 2026-05-05 19:49 | 40.59814 | 4.39726 | 26524 ft | 457 kts | 6° |
| 2026-05-05 19:49 | 40.63933 | 4.41002 | 26993 ft | 461 kts | 7° |
| 2026-05-05 19:49 | 40.66052 | 4.41659 | 27235 ft | 464 kts | 7° |
| 2026-05-05 19:50 | 40.69201 | 4.42645 | 27584 ft | 467 kts | 7° |
| 2026-05-05 19:50 | 40.72377 | 4.43638 | 27923 ft | 470 kts | 7° |
| 2026-05-05 19:50 | 40.75566 | 4.44638 | 28256 ft | 473 kts | 7° |
| 2026-05-05 19:50 | 40.78730 | 4.45633 | 28578 ft | 476 kts | 7° |
| 2026-05-05 19:51 | 40.81960 | 4.46646 | 28901 ft | 478 kts | 7° |
| 2026-05-05 19:51 | 40.85216 | 4.47659 | 29185 ft | 482 kts | 7° |
| 2026-05-05 19:51 | 40.88499 | 4.48684 | 29478 ft | 486 kts | 7° |
| 2026-05-05 19:51 | 40.91798 | 4.49719 | 29782 ft | 489 kts | 7° |
| 2026-05-05 19:52 | 40.95118 | 4.50764 | 30070 ft | 491 kts | 7° |
| 2026-05-05 19:52 | 40.97324 | 4.51459 | 30246 ft | 493 kts | 7° |
| 2026-05-05 19:52 | 41.01796 | 4.52873 | 30610 ft | 495 kts | 7° |
| 2026-05-05 19:52 | 41.05150 | 4.53933 | 30919 ft | 497 kts | 7° |
| 2026-05-05 19:53 | 41.08528 | 4.54995 | 31149 ft | 500 kts | 7° |
| 2026-05-05 19:53 | 41.11922 | 4.56066 | 31394 ft | 503 kts | 7° |
| 2026-05-05 19:53 | 41.15336 | 4.57141 | 31645 ft | 505 kts | 7° |
| 2026-05-05 19:53 | 41.18760 | 4.58229 | 31877 ft | 506 kts | 7° |
| 2026-05-05 19:54 | 41.22152 | 4.59305 | 32134 ft | 508 kts | 7° |
| 2026-05-05 19:54 | 41.25587 | 4.60400 | 32474 ft | 508 kts | 7° |
| 2026-05-05 19:54 | 41.29036 | 4.61505 | 32759 ft | 508 kts | 7° |
| 2026-05-05 19:54 | 41.32472 | 4.62603 | 33013 ft | 508 kts | 7° |
| 2026-05-05 19:55 | 41.35910 | 4.63703 | 33304 ft | 508 kts | 7° |
| 2026-05-05 19:55 | 41.39347 | 4.64801 | 33597 ft | 508 kts | 7° |
| 2026-05-05 19:55 | 41.42786 | 4.65900 | 33874 ft | 507 kts | 7° |
| 2026-05-05 19:55 | 41.46215 | 4.66997 | 34127 ft | 506 kts | 7° |
| 2026-05-05 19:56 | 41.49635 | 4.68089 | 34403 ft | 505 kts | 7° |
| 2026-05-05 19:56 | 41.53050 | 4.69172 | 34639 ft | 504 kts | 7° |
| 2026-05-05 19:56 | 41.56460 | 4.70253 | 34885 ft | 503 kts | 7° |
| 2026-05-05 19:56 | 41.59855 | 4.71334 | 35130 ft | 501 kts | 7° |
| 2026-05-05 19:57 | 41.63242 | 4.72417 | 35365 ft | 500 kts | 7° |
| 2026-05-05 19:57 | 41.66625 | 4.73502 | 35598 ft | 498 kts | 7° |
| 2026-05-05 19:57 | 41.69990 | 4.74585 | 35841 ft | 497 kts | 7° |
| 2026-05-05 19:58 | 41.76664 | 4.76738 | 35916 ft | 495 kts | 7° |
| 2026-05-05 19:58 | 41.83358 | 4.78900 | 35891 ft | 495 kts | 7° |
| 2026-05-05 19:59 | 41.90052 | 4.81069 | 35905 ft | 495 kts | 7° |
| 2026-05-05 19:59 | 41.96745 | 4.83235 | 35890 ft | 495 kts | 7° |
| 2026-05-05 20:00 | 42.03447 | 4.85418 | 35889 ft | 495 kts | 7° |
| 2026-05-05 20:00 | 42.10141 | 4.87603 | 35921 ft | 495 kts | 7° |
| 2026-05-05 20:01 | 42.16850 | 4.89793 | 35899 ft | 496 kts | 7° |
| 2026-05-05 20:01 | 42.23560 | 4.91988 | 35887 ft | 496 kts | 7° |
| 2026-05-05 20:02 | 42.30220 | 4.94174 | 35907 ft | 496 kts | 7° |